Weather at Acibadem Adana Hospital Helipad

Public forecast

Using degrees Celsius for public forecast. Weather courtesy of forecast.io.

Closest aviation weather report (METAR) to Acibadem Adana Hospital Helipad

Closest report is Adana Şakirpaşa Airport, 1.8 nm (3.4 km) WSW.

2024/05/30 22:50 (retrieved 31 minutes ago)

LTAF 302250Z 13003KT 9999 SCT035 21/19 Q1012 NOSIG RMK RWY23 19002KT 3CU035

Closest aviation forecast (TAF) to Acibadem Adana Hospital Helipad

Closest forecast is Adana Şakirpaşa Airport, 1.8 nm (3.4 km) WSW.

2024/05/30 18:00 (retrieved 5 hours ago)

TAF LTAF 301640Z 3018/3118 VRB02KT 9999 SCT035 BECMG 3108/3110 21012KT BECMG 3116/3118 VRB02KT